Latest Weather Observations for Biloela

IDQ60801

Issued at 5:52 pm EST Tuesday 17 May 2022 (issued every 10 minutes, with the page automatically refreshed every 10 minutes)

About weather observations | Map of weather stations | Latest weather observations for QLD | Other Formats
Station Details ID: 039089 Name: THANGOOL AIRPORT Lat: -24.49 Lon: 150.57 Height: 193.1 m
Data from the previous 72 hours. | See also: Recent months at Biloela
Date/Time
EST
Temp
°C
App
Temp
°C
Dew
Point
°C
Rel
Hum
%
Delta-T
°C
Wind Press
QNH
hPa
Press
MSL
hPa
Rain since
9am
mm
Dir  Spd
km/h
Gust
km/h
Spd
kts
Gust
kts
17/05:30pm 25.2 27.6 17.1 60 5.1 CALM 0 6 0 3 1015.2 1014.7 0.0
17/05:00pm 26.8 28.4 17.0 55 6.2 SSE 4 11 2 6 1014.9 1014.4 0.0
17/04:30pm 27.7 27.6 16.0 49 7.3 SSE 11 19 6 10 1014.5 1014.0 0.0
17/04:00pm 28.4 28.7 17.0 50 7.2 S 11 17 6 9 1014.3 1013.8 0.0
17/03:30pm 28.7 28.8 16.6 48 7.6 SSE 11 17 6 9 1014.2 1013.7 0.0
17/03:00pm 28.2 28.7 16.5 49 7.3 S 9 15 5 8 1014.2 1013.7 0.0
17/02:30pm 28.9 29.1 16.8 48 7.6 ESE 11 17 6 9 1014.3 1013.8 0.0
17/02:00pm 28.6 29.6 17.8 52 6.9 ESE 9 17 5 9 1014.3 1013.8 0.0
17/01:30pm 27.6 28.6 17.7 54 6.3 SE 9 15 5 8 1014.7 1014.2 0.0
17/01:00pm 27.1 28.5 17.8 56 5.9 SSE 7 13 4 7 1015.2 1014.7 0.0
17/12:30pm 28.5 29.4 18.3 54 6.6 ESE 11 19 6 10 1015.5 1015.0 0.0
17/12:00pm 27.2 28.7 18.8 60 5.4 SE 9 15 5 8 1016.0 1015.5 0.0
17/11:30am 26.7 27.3 18.6 61 5.2 E 13 17 7 9 1016.5 1016.1 0.0
17/11:00am 26.5 27.8 19.4 65 4.6 SSE 11 15 6 8 1016.9 1016.5 0.0
17/10:30am 25.5 26.4 19.2 68 4.1 SE 13 20 7 11 1017.4 1017.0 0.0
17/10:00am 24.3 24.7 19.1 73 3.3 ESE 15 22 8 12 1017.7 1017.2 0.0
17/09:37am 24.0 25.1 18.9 73 3.3 SE 11 19 6 10 1017.8 1017.3 0.0
17/09:30am 24.3 25.4 18.9 72 3.5 ESE 11 15 6 8 1017.8 1017.3 0.0
17/09:04am 22.7 24.2 18.9 79 2.4 SE 9 19 5 10 1017.8 1017.3 0.0
17/09:00am 23.0 24.7 19.4 80 2.3 SE 9 17 5 9 1017.8 1017.3 0.0
17/08:30am 22.4 23.6 19.0 81 2.2 ESE 11 19 6 10 1017.4 1017.0 0.0
17/08:00am 19.9 21.4 18.9 94 0.6 ESE 9 13 5 7 1017.2 1016.8 0.0
17/07:30am 19.9 21.4 18.9 94 0.6 E 9 11 5 6 1016.9 1016.5 0.0
17/07:00am 18.6 19.9 18.4 99 0.1 E 9 11 5 6 1016.6 1016.2 0.0
17/06:30am 17.9 18.9 17.7 99 0.1 E 9 11 5 6 1016.2 1015.7 0.0
17/06:00am 18.1 19.5 17.9 99 0.1 E 7 11 4 6 1015.9 1015.4 0.0
17/05:30am 18.4 19.6 18.2 99 0.1 E 9 9 5 5 1015.5 1015.0 0.0
17/05:00am 18.2 19.7 18.0 99 0.1 E 7 11 4 6 1015.2 1014.7 0.0
17/04:30am 18.3 20.8 18.1 99 0.1 E 2 7 1 4 1015.0 1014.5 0.0
17/04:00am 18.2 21.0 18.0 99 0.1 CALM 0 0 0 0 1014.9 1014.4 0.0
17/03:30am 18.5 20.3 18.2 98 0.2 ESE 6 7 3 4 1014.9 1014.4 0.0
17/03:00am 18.6 21.5 18.3 98 0.2 CALM 0 0 0 0 1014.8 1014.3 0.0
17/02:30am 18.6 21.2 18.3 98 0.2 ESE 2 6 1 3 1014.9 1014.4 0.0
17/02:00am 18.5 19.7 18.3 99 0.1 E 9 11 5 6 1015.1 1014.6 0.0
17/01:30am 18.5 19.7 18.3 99 0.1 E 9 11 5 6 1015.2 1014.7 0.0
17/01:00am 18.2 19.7 18.0 99 0.1 E 7 9 4 5 1015.3 1014.8 0.0
17/12:30am 18.3 20.0 18.1 99 0.1 ESE 6 7 3 4 1015.4 1014.9 0.0
17/12:00am 18.7 20.6 18.5 99 0.1 ESE 6 9 3 5 1015.5 1015.0 0.0
 
Date/Time
EST
Temp
°C
App
Temp
°C
Dew
Point
°C
Rel
Hum
%
Delta-T
°C
Wind Press
QNH
hPa
Press
MSL
hPa
Rain since
9am
mm
Dir  Spd
km/h
Gust
km/h
Spd
kts
Gust
kts
16/11:30pm 18.1 19.7 17.9 99 0.1 E 6 7 3 4 1015.6 1015.1 0.0
16/11:00pm 18.0 20.6 17.5 97 0.3 CALM 0 4 0 2 1015.5 1015.0 0.0
16/10:30pm 18.3 21.0 17.8 97 0.3 CALM 0 0 0 0 1015.5 1015.0 0.0
16/10:00pm 19.6 20.9 18.4 93 0.8 ESE 9 11 5 6 1015.2 1014.7 0.0
16/09:30pm 19.0 20.1 18.0 94 0.6 E 9 11 5 6 1015.1 1014.6 0.0
16/09:00pm 19.3 20.9 18.3 94 0.6 ENE 7 9 4 5 1015.2 1014.7 0.0
16/08:30pm 20.1 22.0 18.9 93 0.8 ESE 7 9 4 5 1015.0 1014.5 0.0
16/08:00pm 19.9 23.0 18.6 92 0.8 CALM 0 0 0 0 1014.8 1014.3 0.0
16/07:30pm 20.7 24.0 19.2 91 1.0 CALM 0 0 0 0 1014.5 1014.0 0.0
16/07:00pm 21.9 24.1 19.1 84 1.8 ESE 6 7 3 4 1014.0 1013.5 0.0
16/06:30pm 22.2 24.1 19.0 82 2.0 E 7 9 4 5 1013.6 1013.1 0.0
16/06:00pm 22.9 26.2 19.1 79 2.4 CALM 0 0 0 0 1013.4 1012.9 0.0
16/05:30pm 24.2 27.1 19.1 73 3.3 E 2 6 1 3 1013.1 1012.6 0.0
16/05:00pm 26.1 28.1 19.2 65 4.5 ENE 7 9 4 5 1012.8 1012.3 0.0
16/04:30pm 26.7 28.2 18.8 62 5.1 NE 9 13 5 7 1012.6 1012.1 0.0
16/04:00pm 27.0 27.8 19.1 62 5.1 NE 13 17 7 9 1012.5 1012.0 0.0
16/03:30pm 28.2 29.1 19.2 58 5.9 E 13 20 7 11 1012.5 1012.0 0.0
16/03:00pm 27.9 30.1 17.4 52 6.7 ESE 2 9 1 5 1012.5 1012.0 0.0
16/02:30pm 28.4 30.2 18.2 54 6.6 ESE 6 15 3 8 1012.5 1012.0 0.0
16/02:00pm 28.0 29.9 19.0 58 5.8 SE 7 17 4 9 1012.7 1012.2 0.0
16/01:30pm 27.9 30.3 19.7 61 5.4 ESE 6 13 3 7 1013.0 1012.5 0.0
16/01:00pm 27.1 29.2 18.9 61 5.3 ESE 6 13 3 7 1013.3 1012.8 0.0
16/12:30pm 27.0 29.8 18.8 60 5.3 NE 2 7 1 4 1013.7 1013.2 0.0
16/12:00pm 26.3 28.6 19.4 66 4.5 SW 6 7 3 4 1014.0 1013.5 0.0
16/11:30am 25.4 28.2 20.4 74 3.3 S 6 11 3 6 1014.4 1013.9 0.0
16/11:00am 24.6 27.3 20.7 79 2.6 ESE 7 11 4 6 1014.8 1014.3 0.0
16/10:30am 23.6 25.9 20.7 84 1.9 E 9 13 5 7 1015.0 1014.5 0.0
16/10:00am 23.0 25.8 20.9 88 1.4 ESE 7 13 4 7 1015.1 1014.6 0.0
16/09:30am 21.5 25.6 20.8 96 0.5 CALM 0 6 0 3 1015.3 1014.8 0.0
16/09:00am 20.3 22.7 20.0 98 0.2 ESE 7 9 4 5 1015.1 1014.6 0.4
16/08:30am 19.7 21.9 19.5 99 0.1 ESE 7 9 4 5 1014.8 1014.3 0.4
16/08:00am 18.9 20.3 18.7 99 0.1 E 9 11 5 6 1014.5 1014.0 0.4
16/07:30am 18.4 20.2 18.2 99 0.1 ESE 6 9 3 5 1014.3 1013.8 0.4
16/07:00am 17.7 20.3 17.5 99 0.1 CALM 0 0 0 0 1014.0 1013.5 0.4
16/06:30am 17.0 19.3 16.8 99 0.1 CALM 0 0 0 0 1013.7 1013.2 0.4
16/06:07am 16.6 18.4 16.4 99 0.1 ESE 2 7 1 4 1013.4 1012.9 0.4
16/06:00am 16.4 18.5 16.2 99 0.1 CALM 0 0 0 0 1013.3 1012.8 0.4
16/05:30am 16.2 18.2 16.0 99 0.1 CALM 0 0 0 0 1013.1 1012.6 0.4
16/05:00am 16.6 17.6 16.4 99 0.1 E 6 7 3 4 1012.7 1012.2 0.4
16/04:30am 16.4 18.5 16.2 99 0.1 CALM 0 4 0 2 1012.5 1012.0 0.4
16/04:18am 16.5 17.9 16.3 99 0.1 S 4 7 2 4 1012.6 1012.1 0.4
16/04:00am 17.0 18.0 16.8 99 0.1 ESE 7 9 4 5 1012.4 1011.9 0.4
16/03:30am 17.4 18.5 17.2 99 0.1 E 7 7 4 4 1012.5 1012.0 0.4
16/03:00am 16.8 17.3 16.6 99 0.1 ENE 9 9 5 5 1012.6 1012.1 0.4
16/02:41am 17.2 18.3 17.0 99 0.1 ESE 7 7 4 4 1012.5 1012.0 0.4
16/02:30am 17.3 18.6 17.1 99 0.1 E 6 9 3 5 1012.6 1012.1 0.4
16/02:25am 17.6 19.0 17.4 99 0.1 ESE 6 7 3 4 1012.6 1012.1 0.4
16/02:00am 17.8 19.3 17.6 99 0.1 ESE 6 7 3 4 1012.7 1012.2 0.4
16/01:30am 17.9 19.3 17.7 99 0.1 E 7 9 4 5 1012.9 1012.4 0.4
16/01:00am 18.2 19.7 18.0 99 0.1 E 7 9 4 5 1013.1 1012.6 0.4
16/12:30am 18.2 21.0 18.0 99 0.1 CALM 0 0 0 0 1013.2 1012.7 0.4
16/12:00am 18.6 21.6 18.4 99 0.1 CALM 0 0 0 0 1013.3 1012.8 0.4
 
Date/Time
EST
Temp
°C
App
Temp
°C
Dew
Point
°C
Rel
Hum
%
Delta-T
°C
Wind Press
QNH
hPa
Press
MSL
hPa
Rain since
9am
mm
Dir  Spd
km/h
Gust
km/h
Spd
kts
Gust
kts
15/11:30pm 19.3 22.6 19.0 98 0.2 CALM 0 0 0 0 1013.4 1012.9 0.4
15/11:00pm 19.8 22.7 19.1 96 0.4 E 2 7 1 4 1013.6 1013.1 0.4
15/10:30pm 20.3 22.5 19.1 93 0.8 E 6 9 3 5 1013.8 1013.3 0.4
15/10:00pm 20.6 23.7 19.6 94 0.6 E 2 9 1 5 1013.9 1013.4 0.4
15/09:30pm 21.1 23.4 19.4 90 1.1 ESE 6 13 3 7 1013.5 1013.0 0.4
15/09:00pm 21.6 24.3 20.2 92 0.9 SSE 6 9 3 5 1013.4 1012.9 0.4
15/08:30pm 22.4 25.5 21.0 92 0.9 S 6 7 3 4 1013.0 1012.5 0.4
15/08:00pm 22.3 25.6 21.8 97 0.3 E 7 9 4 5 1012.6 1012.1 0.4
15/07:30pm 22.7 26.5 21.0 90 1.1 SSW 2 9 1 5 1012.3 1011.8 0.4
15/07:00pm 22.5 25.9 21.0 91 1.0 S 4 11 2 6 1012.0 1011.6 0.4
15/06:30pm 22.6 24.9 20.7 89 1.2 SE 9 15 5 8 1011.7 1011.2 0.4
15/06:00pm 23.3 25.0 21.0 87 1.5 E 13 19 7 10 1011.5 1011.0 0.0
15/05:30pm 25.4 27.0 19.1 68 4.1 ESE 9 15 5 8 1011.1 1010.6 0.0
15/05:09pm 27.8 29.1 18.5 57 6.0 WNW 9 15 5 8 1010.7 1010.2 0.0
15/05:00pm 27.9 29.0 18.0 55 6.3 NW 9 13 5 7 1010.7 1010.2 0.0
15/04:40pm 27.9 29.6 18.0 55 6.3 WNW 6 9 3 5 1010.5 1010.0 0.0
15/04:30pm 27.8 29.1 17.6 53 6.5 WNW 7 11 4 6 1010.4 1009.9 0.0
15/04:00pm 29.4 30.6 16.9 47 7.9 WNW 6 9 3 5 1010.3 1009.8 0.0
15/03:30pm 29.5 30.6 16.7 46 8.1 WNW 6 11 3 6 1010.0 1009.5 0.0
15/03:00pm 29.6 30.7 17.1 47 7.9 SW 7 15 4 8 1010.1 1009.6 0.0
15/02:30pm 29.8 31.9 17.3 47 8.0 NNW 2 9 1 5 1010.1 1009.6 0.0
15/02:00pm 29.2 30.7 18.0 50 7.2 NW 7 13 4 7 1010.3 1009.8 0.0
15/01:30pm 27.5 28.3 17.4 54 6.4 NNW 9 15 5 8 1010.8 1010.3 0.0
15/01:00pm 28.1 29.7 17.9 54 6.5 ESE 6 7 3 4 1011.1 1010.6 0.0
15/12:30pm 28.4 29.6 18.2 54 6.6 NNW 9 15 5 8 1011.7 1011.2 0.0
15/12:00pm 27.6 28.9 17.2 53 6.6 S 6 13 3 7 1012.3 1011.8 0.0
15/11:30am 27.1 29.1 18.7 60 5.4 SSW 6 11 3 6 1012.8 1012.3 0.0
15/11:00am 26.4 28.3 19.0 63 4.8 W 7 13 4 7 1013.5 1013.0 0.0
15/10:30am 25.7 28.1 18.9 66 4.4 ESE 4 9 2 5 1013.9 1013.4 0.0
15/10:00am 24.8 27.4 20.1 75 3.1 E 6 11 3 6 1014.2 1013.7 0.0
15/09:30am 23.9 26.5 20.0 79 2.5 NE 6 9 3 5 1014.4 1013.9 0.0
15/09:00am 22.1 24.5 20.0 88 1.4 E 7 11 4 6 1014.3 1013.8 0.2
15/08:30am 21.1 24.4 19.9 93 0.8 ENE 2 9 1 5 1014.2 1013.7 0.2
15/08:06am 19.8 23.3 19.6 99 0.1 CALM 0 0 0 0 1014.2 1013.7 0.2
15/08:00am 19.5 22.9 19.3 99 0.1 CALM 0 0 0 0 1014.2 1013.7 0.2
15/07:35am 19.1 22.3 18.9 99 0.1 CALM 0 0 0 0 1013.8 1013.3 0.2
15/07:30am 19.0 22.2 18.8 99 0.1 CALM 0 0 0 0 1013.7 1013.2 0.2
15/07:10am 18.0 19.6 17.8 99 0.1 SE 6 11 3 6 1013.5 1013.0 0.2
15/07:00am 17.7 19.0 17.5 99 0.1 SE 7 9 4 5 1013.5 1013.0 0.2
15/06:30am 17.4 18.5 17.2 99 0.1 E 7 9 4 5 1013.3 1012.8 0.0
15/06:00am 18.0 20.3 17.8 99 0.1 E 2 6 1 3 1012.8 1012.3 0.0
15/05:30am 18.3 20.0 18.1 99 0.1 E 6 7 3 4 1012.5 1012.0 0.0
15/05:00am 17.9 20.6 17.7 99 0.1 CALM 0 0 0 0 1012.3 1011.8 0.0
15/04:30am 17.1 19.5 16.9 99 0.1 CALM 0 0 0 0 1011.8 1011.4 0.0
15/04:00am 17.0 18.0 16.8 99 0.1 ESE 7 9 4 5 1011.7 1011.2 0.0
15/03:30am 17.1 18.1 16.9 99 0.1 ESE 7 9 4 5 1011.6 1011.1 0.0
15/03:16am 17.3 18.4 17.1 99 0.1 E 7 9 4 5 1011.7 1011.2 0.0
15/03:00am 17.0 18.0 16.8 99 0.1 E 7 9 4 5 1011.7 1011.2 0.0
15/02:30am 16.4 18.5 16.2 99 0.1 CALM 0 0 0 0 1011.9 1011.5 0.0
15/02:00am 17.7 20.3 17.5 99 0.1 CALM 0 0 0 0 1012.2 1011.7 0.0
15/01:30am 16.9 19.2 16.7 99 0.1 CALM 0 0 0 0 1012.2 1011.7 0.0
15/01:00am 17.9 19.8 17.7 99 0.1 E 4 6 2 3 1012.3 1011.8 0.0
15/12:58am 17.9 19.8 17.7 99 0.1 E 4 6 2 3 1012.3 1011.8 0.0
15/12:42am 17.1 18.7 16.9 99 0.1 E 4 7 2 4 1012.4 1011.9 0.0
15/12:30am 17.3 19.7 17.1 99 0.1 CALM 0 0 0 0 1012.5 1012.0 0.0
15/12:22am 17.8 20.4 17.6 99 0.1 CALM 0 0 0 0 1012.5 1012.0 0.0
15/12:17am 18.0 20.7 17.8 99 0.1 CALM 0 0 0 0 1012.4 1011.9 0.0
15/12:00am 17.7 20.3 17.5 99 0.1 CALM 0 0 0 0 1012.5 1012.0 0.0
 
Date/Time
EST
Temp
°C
App
Temp
°C
Dew
Point
°C
Rel
Hum
%
Delta-T
°C
Wind Press
QNH
hPa
Press
MSL
hPa
Rain since
9am
mm
Dir  Spd
km/h
Gust
km/h
Spd
kts
Gust
kts
14/11:45pm 17.9 19.8 17.7 99 0.1 ESE 4 7 2 4 1012.5 1012.0 0.0
14/11:30pm 18.4 20.0 18.2 99 0.1 SE 7 9 4 5 1012.5 1012.0 0.0
14/11:00pm 18.3 20.0 18.1 99 0.1 ESE 6 7 3 4 1012.6 1012.1 0.0
14/10:30pm 18.7 21.7 18.5 99 0.1 CALM 0 0 0 0 1012.6 1012.1 0.0
14/10:00pm 18.7 21.3 18.4 98 0.2 NNW 2 7 1 4 1012.6 1012.1 0.0
14/09:30pm 19.3 22.6 19.0 98 0.2 CALM 0 0 0 0 1012.5 1012.0 0.0
14/09:00pm 19.1 22.0 18.3 95 0.5 CALM 0 0 0 0 1012.3 1011.8 0.0
14/08:30pm 20.1 23.4 19.1 94 0.6 CALM 0 0 0 0 1011.9 1011.5 0.0
14/08:00pm 20.3 23.4 18.6 90 1.1 CALM 0 0 0 0 1011.7 1011.2 0.0
14/07:30pm 21.3 23.2 19.0 87 1.5 E 7 9 4 5 1011.7 1011.2 0.0
14/07:00pm 21.4 24.3 19.0 86 1.5 SE 2 7 1 4 1011.5 1011.0 0.0
14/06:30pm 21.5 24.0 18.1 81 2.1 E 2 9 1 5 1011.1 1010.6 0.0
14/06:00pm 23.1 26.0 18.2 74 3.1 CALM 0 0 0 0 1010.6 1010.1 0.0

Other formats

Comma delimited format used in spreadsheet applications
http://www.bom.gov.au/fwo/IDQ60801/IDQ60801.94376.axf

JavaScript Object Notation format (JSON) in row-major order
http://www.bom.gov.au/fwo/IDQ60801/IDQ60801.94376.json

Data quality

Most of these data are generated automatically and are frequently updated. Quality checks on data are not normally performed. It is possible for incorrect values to appear. Refer to information at About Latest Weather Observations and please check the disclaimer before using these data.